Climatologie pour Saint-Brevin les Pins
Jour • Résumé pour décembre 7, 2017 Système :  Anglais    Métrique   Mixte
« - 1 jour
+ 1 jour »
Jour Semaine Mois Année Personnalisé
  Maximum : Minimum : Moyenne :
Température sous abri : 55.4 °F 38.1 °F 48.9 °F
Point de rosée : 54.9 °F 36.3 °F 47.8 °F
Humidité : 98 % 92 % 96 %
Vitesse du vent : 19 mph 0 mph 7.5 mph
Rafale : 27 mph - -
Direction :- - SW
Pression : 30.3 in 30 in -
Précipitations : 0.28 in    
Historical Graphs
 
 
Tableau de données pour décembre 7, 2017
Heure Tempé Pt rosée Pression Vent Vitesse Rafale Humidité Taux pluie (/hr) Soleil
00:00 38.1 °F 36.3 °F 30.3 in South 4 mph 13 mph 93 % 0 in 0 W/m2
00:10 38.1 °F 36.3 °F 30.3 in South 6 mph 11 mph 93 % 0 in 0 W/m2
00:15 38.3 °F 36.5 °F 30.3 in SE 6 mph 10 mph 93 % 0 in 0 W/m2
00:20 38.3 °F 36.5 °F 30.3 in SSE 7 mph 10 mph 93 % 0 in 0 W/m2
00:25 38.3 °F 36.5 °F 30.3 in SSE 5 mph 11 mph 93 % 0 in 0 W/m2
00:30 38.3 °F 36.5 °F 30.3 in South 7 mph 11 mph 93 % 0 in 0 W/m2
00:35 38.3 °F 36.5 °F 30.3 in SE 7 mph 10 mph 93 % 0 in 0 W/m2
00:40 38.5 °F 36.5 °F 30.3 in SE 9 mph 10 mph 93 % 0 in 0 W/m2
00:45 38.5 °F 36.7 °F 30.3 in SSE 9 mph 10 mph 93 % 0 in 0 W/m2
00:50 38.7 °F 36.7 °F 30.3 in South 7 mph 10 mph 93 % 0 in 0 W/m2
00:55 38.7 °F 36.7 °F 30.3 in South 6 mph 10 mph 93 % 0 in 0 W/m2
01:00 38.7 °F 36.9 °F 30.3 in SSE 7 mph 12 mph 93 % 0 in 0 W/m2
01:05 38.8 °F 36.9 °F 30.3 in SSE 7 mph 12 mph 93 % 0 in 0 W/m2
01:10 38.8 °F 36.9 °F 30.3 in SSE 6 mph 11 mph 93 % 0 in 0 W/m2
01:15 38.8 °F 37 °F 30.3 in SSE 6 mph 11 mph 93 % 0 in 0 W/m2
01:20 39 °F 37.2 °F 30.3 in South 5 mph 11 mph 93 % 0 in 0 W/m2
01:25 39 °F 37.2 °F 30.3 in SSE 5 mph 11 mph 93 % 0 in 0 W/m2
01:30 39.4 °F 37.4 °F 30.3 in SSW 6 mph 10 mph 93 % 0 in 0 W/m2
01:35 39.6 °F 37.6 °F 30.3 in SSE 5 mph 12 mph 93 % 0 in 0 W/m2
01:40 39.6 °F 37.6 °F 30.3 in South 7 mph 12 mph 93 % 0 in 0 W/m2
01:45 39.4 °F 37.2 °F 30.3 in South 9 mph 12 mph 92 % 0 in 0 W/m2
01:50 39.4 °F 37.4 °F 30.3 in SSE 10 mph 12 mph 93 % 0 in 0 W/m2
01:55 39.2 °F 37.4 °F 30.3 in SSW 4 mph 11 mph 93 % 0 in 0 W/m2
02:00 39.2 °F 37.4 °F 30.3 in SSW 11 mph 13 mph 93 % 0 in 0 W/m2
02:05 39 °F 37 °F 30.3 in SSE 4 mph 13 mph 92 % 0 in 0 W/m2
02:10 39.2 °F 37.4 °F 30.3 in SSE 9 mph 16 mph 93 % 0 in 0 W/m2
02:15 39.4 °F 37.4 °F 30.3 in SSW 7 mph 16 mph 93 % 0 in 0 W/m2
02:20 39.6 °F 37.6 °F 30.3 in South 10 mph 13 mph 93 % 0 in 0 W/m2
02:25 39.7 °F 37.8 °F 30.3 in SE 6 mph 14 mph 93 % 0 in 0 W/m2
02:30 39.9 °F 38.1 °F 30.3 in South 9 mph 14 mph 93 % 0 in 0 W/m2
02:35 40.1 °F 38.5 °F 30.3 in SSE 9 mph 12 mph 94 % 0 in 0 W/m2
02:40 40.3 °F 38.7 °F 30.3 in SSE 9 mph 14 mph 94 % 0 in 0 W/m2
02:45 40.6 °F 39 °F 30.3 in SSE 6 mph 14 mph 94 % 0 in 0 W/m2
02:50 40.8 °F 39.4 °F 30.3 in South 10 mph 14 mph 94 % 0 in 0 W/m2
02:55 41.4 °F 39.9 °F 30.3 in SSW 7 mph 15 mph 95 % 0 in 0 W/m2
03:00 41.5 °F 40.3 °F 30.3 in South 7 mph 18 mph 95 % 0 in 0 W/m2
03:05 41.5 °F 40.3 °F 30.3 in South 8 mph 18 mph 95 % 0 in 0 W/m2
03:10 41.7 °F 40.5 °F 30.3 in South 8 mph 18 mph 95 % 0 in 0 W/m2
03:15 41.7 °F 40.5 °F 30.3 in SE 8 mph 18 mph 95 % 0 in 0 W/m2
03:20 41.9 °F 40.6 °F 30.3 in SSE 11 mph 17 mph 95 % 0 in 0 W/m2
03:25 42.1 °F 40.6 °F 30.3 in SSE 12 mph 16 mph 95 % 0 in 0 W/m2
03:30 42.3 °F 41 °F 30.3 in SSE 5 mph 18 mph 95 % 0 in 0 W/m2
03:35 42.4 °F 41 °F 30.3 in SSE 13 mph 18 mph 95 % 0 in 0 W/m2
03:40 42.6 °F 41.2 °F 30.3 in South 7 mph 15 mph 95 % 0 in 0 W/m2
03:45 42.8 °F 41.5 °F 30.2 in South 6 mph 18 mph 95 % 0 in 0 W/m2
03:50 43 °F 41.7 °F 30.2 in South 11 mph 18 mph 95 % 0 in 0 W/m2
03:55 43.2 °F 41.7 °F 30.2 in SSE 7 mph 17 mph 95 % 0 in 0 W/m2
04:00 43.2 °F 42.1 °F 30.2 in South 5 mph 14 mph 96 % 0 in 0 W/m2
04:05 43.2 °F 42.1 °F 30.2 in SSW 11 mph 16 mph 96 % 0.01 in 0 W/m2
04:10 43.3 °F 42.3 °F 30.2 in South 9 mph 16 mph 96 % 0.01 in 0 W/m2
04:15 43.5 °F 42.6 °F 30.2 in South 8 mph 14 mph 96 % 0.01 in 0 W/m2
04:25 44.1 °F 43 °F 30.2 in South 7 mph 18 mph 96 % 0.01 in 0 W/m2
04:30 44.1 °F 43 °F 30.2 in South 9 mph 16 mph 96 % 0.01 in 0 W/m2
04:35 44.2 °F 43.2 °F 30.2 in South 9 mph 14 mph 96 % 0.01 in 0 W/m2
04:40 44.2 °F 43.2 °F 30.2 in SSW 7 mph 13 mph 96 % 0.01 in 0 W/m2
04:45 44.2 °F 43.2 °F 30.2 in South 8 mph 14 mph 96 % 0.01 in 0 W/m2
04:50 44.4 °F 43.3 °F 30.2 in SSE 4 mph 15 mph 96 % 0.01 in 0 W/m2
04:55 44.4 °F 43.5 °F 30.2 in South 8 mph 15 mph 96 % 0.01 in 0 W/m2
05:05 45 °F 43.9 °F 30.2 in South 11 mph 14 mph 96 % 0 in 0 W/m2
05:10 45.1 °F 44.1 °F 30.2 in South 10 mph 14 mph 96 % 0 in 0 W/m2
05:15 45.3 °F 44.2 °F 30.2 in SSE 4 mph 13 mph 96 % 0 in 0 W/m2
05:20 45.7 °F 44.6 °F 30.2 in South 8 mph 13 mph 96 % 0 in 0 W/m2
05:25 45.9 °F 44.8 °F 30.2 in SSE 5 mph 12 mph 96 % 0 in 0 W/m2
05:30 45.9 °F 44.8 °F 30.2 in SSE 6 mph 12 mph 96 % 0 in 0 W/m2
05:35 46 °F 45 °F 30.2 in South 5 mph 12 mph 96 % 0 in 0 W/m2
05:40 46.2 °F 45.1 °F 30.2 in SSE 6 mph 13 mph 96 % 0 in 0 W/m2
05:45 46.2 °F 45.1 °F 30.2 in SSE 6 mph 13 mph 96 % 0 in 0 W/m2
05:50 46.4 °F 45.3 °F 30.2 in SSW 10 mph 10 mph 96 % 0 in 0 W/m2
05:55 46.8 °F 45.7 °F 30.2 in SSW 10 mph 13 mph 96 % 0 in 0 W/m2
06:00 47.5 °F 46.4 °F 30.2 in South 5 mph 13 mph 96 % 0 in 0 W/m2
06:05 47.7 °F 46.6 °F 30.2 in SSW 10 mph 15 mph 96 % 0 in 0 W/m2
06:10 48 °F 46.9 °F 30.2 in SSE 4 mph 15 mph 96 % 0 in 0 W/m2
06:15 48.4 °F 47.3 °F 30.2 in South 7 mph 11 mph 96 % 0 in 0 W/m2
06:20 48.6 °F 47.5 °F 30.2 in South 4 mph 12 mph 96 % 0 in 0 W/m2
06:25 48.7 °F 47.7 °F 30.2 in South 9 mph 12 mph 96 % 0 in 0 W/m2
06:30 49.3 °F 48.2 °F 30.2 in SSW 12 mph 14 mph 96 % 0 in 0 W/m2
06:35 50.2 °F 48.9 °F 30.2 in SSW 11 mph 18 mph 96 % 0 in 0 W/m2
06:40 50.7 °F 49.6 °F 30.2 in SSW 7 mph 18 mph 96 % 0 in 0 W/m2
06:45 51.1 °F 49.6 °F 30.2 in SSE 4 mph 20 mph 95 % 0 in 0 W/m2
06:50 51.1 °F 49.6 °F 30.2 in South 8 mph 20 mph 95 % 0 in 0 W/m2
06:55 51.3 °F 49.8 °F 30.2 in SSW 13 mph 19 mph 95 % 0 in 0 W/m2
07:00 51.4 °F 50 °F 30.2 in South 11 mph 19 mph 95 % 0 in 0 W/m2
07:05 51.3 °F 50 °F 30.2 in South 12 mph 18 mph 95 % 0 in 0 W/m2
07:10 51.3 °F 50 °F 30.2 in SSW 12 mph 20 mph 95 % 0 in 0 W/m2
07:15 51.4 °F 50 °F 30.2 in South 10 mph 20 mph 95 % 0 in 0 W/m2
07:20 51.4 °F 50 °F 30.2 in South 10 mph 18 mph 95 % 0 in 0 W/m2
07:25 51.4 °F 50.2 °F 30.2 in SSW 6 mph 18 mph 95 % 0 in 0 W/m2
07:30 51.4 °F 50.2 °F 30.2 in SSW 7 mph 17 mph 95 % 0 in 0 W/m2
07:35 51.4 °F 50.2 °F 30.1 in SSW 9 mph 17 mph 95 % 0 in 0 W/m2
07:40 51.6 °F 50.4 °F 30.1 in SW 14 mph 18 mph 95 % 0 in 0 W/m2
07:45 51.8 °F 50.4 °F 30.1 in South 5 mph 22 mph 95 % 0 in 0 W/m2
07:50 52 °F 50.5 °F 30.1 in SSW 13 mph 22 mph 95 % 0 in 0 W/m2
07:55 52 °F 50.5 °F 30.1 in SSW 8 mph 21 mph 95 % 0 in 0 W/m2
08:00 52.2 °F 50.7 °F 30.1 in SSW 8 mph 18 mph 95 % 0 in 0 W/m2
08:05 52.2 °F 50.9 °F 30.1 in SSW 11 mph 18 mph 95 % 0 in 0 W/m2
08:10 52.3 °F 51.3 °F 30.1 in South 9 mph 19 mph 96 % 0.01 in 0 W/m2
08:15 52.3 °F 51.3 °F 30.1 in SW 7 mph 19 mph 96 % 0.01 in 0 W/m2
08:20 52.5 °F 51.4 °F 30.1 in South 10 mph 19 mph 96 % 0.01 in 0 W/m2
08:25 52.5 °F 51.4 °F 30.1 in South 10 mph 19 mph 96 % 0.01 in 0 W/m2
08:30 52.5 °F 51.4 °F 30.1 in SSW 7 mph 17 mph 96 % 0.01 in 0 W/m2
08:35 52.7 °F 51.6 °F 30.1 in SSW 6 mph 16 mph 96 % 0.01 in 0 W/m2
08:40 52.7 °F 51.6 °F 30.1 in SSW 9 mph 16 mph 96 % 0.01 in 0 W/m2
08:45 52.5 °F 51.4 °F 30.1 in SSE 14 mph 16 mph 96 % 0.01 in 0 W/m2
08:50 52.3 °F 51.1 °F 30.1 in SSW 10 mph 18 mph 95 % 0.01 in 0 W/m2
08:55 52.3 °F 51.1 °F 30.1 in South 7 mph 18 mph 95 % 0.01 in 0 W/m2
09:00 52.3 °F 51.1 °F 30.1 in South 13 mph 16 mph 95 % 0.02 in 0 W/m2
09:05 52.3 °F 51.3 °F 30.1 in SSW 8 mph 16 mph 96 % 0.02 in 0 W/m2
09:10 52.5 °F 51.4 °F 30.1 in SSW 9 mph 21 mph 96 % 0.01 in 0 W/m2
09:15 52.5 °F 51.4 °F 30.1 in SSW 8 mph 21 mph 96 % 0.01 in 0 W/m2
09:20 52.5 °F 51.4 °F 30.1 in SW 9 mph 20 mph 96 % 0.01 in 9 W/m2
09:25 52.5 °F 51.4 °F 30.1 in SSW 10 mph 20 mph 96 % 0.01 in 12 W/m2
09:30 52.5 °F 51.4 °F 30.1 in South 11 mph 19 mph 96 % 0.01 in 7 W/m2
09:40 52.7 °F 51.6 °F 30.1 in South 6 mph 18 mph 96 % 0.03 in 7 W/m2
09:45 52.9 °F 51.6 °F 30.1 in SSW 9 mph 23 mph 96 % 0.04 in 11 W/m2
09:50 52.9 °F 51.8 °F 30.1 in SW 5 mph 23 mph 96 % 0.05 in 9 W/m2
09:55 52.9 °F 51.8 °F 30.1 in SSW 11 mph 18 mph 96 % 0.06 in 7 W/m2
10:00 52.9 °F 52.2 °F 30.1 in SW 13 mph 18 mph 97 % 0.06 in 11 W/m2
10:05 53.1 °F 52.2 °F 30.1 in SW 15 mph 27 mph 97 % 0.07 in 21 W/m2
10:10 53.1 °F 52.3 °F 30.1 in SW 10 mph 27 mph 97 % 0.08 in 14 W/m2
10:15 53.2 °F 52.3 °F 30.1 in SSW 10 mph 20 mph 97 % 0.09 in 7 W/m2
10:20 53.2 °F 52.5 °F 30.1 in West 11 mph 20 mph 97 % 0.11 in 5 W/m2
10:25 53.2 °F 52.5 °F 30.1 in SSW 10 mph 21 mph 97 % 0.12 in 9 W/m2
10:30 53.4 °F 52.7 °F 30.1 in SW 5 mph 21 mph 97 % 0.13 in 12 W/m2
10:40 53.8 °F 52.9 °F 30.1 in South 12 mph 19 mph 97 % 0.11 in 11 W/m2
10:45 53.8 °F 52.9 °F 30.1 in WSW 7 mph 23 mph 97 % 0.11 in 16 W/m2
10:50 53.8 °F 52.9 °F 30.1 in South 5 mph 23 mph 97 % 0.09 in 19 W/m2
10:55 53.8 °F 52.9 °F 30.1 in SSW 13 mph 20 mph 97 % 0.09 in 21 W/m2
11:00 53.8 °F 52.9 °F 30.1 in SSW 9 mph 19 mph 97 % 0.09 in 28 W/m2
11:05 54 °F 53.1 °F 30.1 in South 9 mph 21 mph 97 % 0.08 in 18 W/m2
11:10 54 °F 53.1 °F 30.1 in SW 9 mph 21 mph 97 % 0.09 in 21 W/m2
11:15 54 °F 53.2 °F 30.1 in WSW 11 mph 18 mph 97 % 0.09 in 21 W/m2
11:20 54.1 °F 53.2 °F 30.1 in WNW 11 mph 21 mph 97 % 0.08 in 16 W/m2
11:25 54.1 °F 53.2 °F 30.1 in SSW 6 mph 21 mph 97 % 0.07 in 14 W/m2
11:30 54.1 °F 53.4 °F 30.1 in WSW 9 mph 18 mph 97 % 0.06 in 14 W/m2
11:35 54.3 °F 53.4 °F 30.1 in SSW 14 mph 18 mph 97 % 0.06 in 14 W/m2
11:40 54.3 °F 53.6 °F 30.1 in West 8 mph 22 mph 97 % 0.05 in 30 W/m2
11:50 54.3 °F 53.6 °F 30.1 in SSW 9 mph 22 mph 97 % 0.05 in 39 W/m2
11:55 54.5 °F 53.6 °F 30.1 in South 7 mph 21 mph 97 % 0.04 in 42 W/m2
12:00 54.5 °F 53.6 °F 30.1 in SSW 9 mph 18 mph 97 % 0.04 in 30 W/m2
12:05 54.5 °F 54 °F 30.1 in WSW 5 mph 20 mph 98 % 0.04 in 16 W/m2
12:10 54.7 °F 54 °F 30.1 in WSW 10 mph 20 mph 98 % 0.02 in 18 W/m2
12:15 54.7 °F 54 °F 30.1 in WSW 11 mph 19 mph 98 % 0.02 in 18 W/m2
12:20 54.7 °F 54 °F 30.1 in WSW 9 mph 18 mph 98 % 0.02 in 16 W/m2
12:25 54.5 °F 54 °F 30.1 in SW 1 mph 16 mph 98 % 0.02 in 21 W/m2
12:30 54.5 °F 53.6 °F 30.1 in WSW 9 mph 18 mph 97 % 0.02 in 32 W/m2
12:35 54.7 °F 53.8 °F 30.1 in SW 5 mph 18 mph 97 % 0.02 in 35 W/m2
12:40 54.7 °F 54 °F 30.1 in SW 6 mph 18 mph 98 % 0.02 in 23 W/m2
12:45 54.7 °F 54.1 °F 30.1 in West 5 mph 18 mph 98 % 0.02 in 21 W/m2
12:50 54.7 °F 54 °F 30.1 in SW 9 mph 18 mph 98 % 0.02 in 14 W/m2
12:55 54.7 °F 53.8 °F 30 in SW 10 mph 19 mph 97 % 0.02 in 26 W/m2
13:05 54.7 °F 53.8 °F 30 in SW 9 mph 22 mph 97 % 0.02 in 60 W/m2
13:10 54.7 °F 54.1 °F 30 in WSW 14 mph 19 mph 98 % 0.02 in 135 W/m2
13:15 54.9 °F 54.3 °F 30 in SW 13 mph 22 mph 98 % 0.02 in 102 W/m2
13:20 55 °F 54.5 °F 30 in West 12 mph 27 mph 98 % 0.01 in 120 W/m2
13:30 55.4 °F 54.9 °F 30 in WNW 6 mph 22 mph 98 % 0 in 65 W/m2
13:35 55.4 °F 54.9 °F 30 in West 7 mph 22 mph 98 % 0 in 60 W/m2
13:40 55.2 °F 54.3 °F 30 in West 3 mph 19 mph 97 % 0 in 53 W/m2
13:45 55 °F 54.3 °F 30 in WSW 11 mph 18 mph 97 % 0 in 35 W/m2
13:50 55.2 °F 54.7 °F 30 in SSW 4 mph 18 mph 98 % 0 in 28 W/m2
13:55 55 °F 54.5 °F 30 in SW 10 mph 18 mph 98 % 0 in 26 W/m2
14:00 55 °F 54.3 °F 30 in West 11 mph 16 mph 97 % 0 in 26 W/m2
14:05 55 °F 54.1 °F 30 in South 6 mph 17 mph 97 % 0 in 44 W/m2
14:10 55.2 °F 54.7 °F 30 in West 19 mph 19 mph 98 % 0 in 40 W/m2
14:15 55.2 °F 54.7 °F 30 in WSW 16 mph 19 mph 98 % 0.01 in 30 W/m2
14:20 55.2 °F 54.7 °F 30 in West 9 mph 19 mph 98 % 0.01 in 53 W/m2
14:25 55 °F 54.3 °F 30 in WNW 8 mph 19 mph 97 % 0.02 in 49 W/m2
14:30 55 °F 54.5 °F 30 in WNW 4 mph 15 mph 98 % 0.02 in 44 W/m2
14:40 55 °F 54.5 °F 30 in West 10 mph 17 mph 98 % 0.02 in 32 W/m2
14:45 55 °F 54.5 °F 30 in SW 12 mph 17 mph 98 % 0.02 in 35 W/m2
14:50 55 °F 54.5 °F 30 in West 6 mph 17 mph 98 % 0.03 in 32 W/m2
14:55 55 °F 54.5 °F 30 in WSW 8 mph 18 mph 98 % 0.03 in 39 W/m2
15:00 55 °F 54.5 °F 30 in West 8 mph 18 mph 98 % 0.04 in 35 W/m2
15:05 55 °F 54.5 °F 30 in SW 11 mph 18 mph 98 % 0.04 in 28 W/m2
15:15 54.9 °F 54.3 °F 30 in WSW 10 mph 21 mph 98 % 0.03 in 37 W/m2
15:25 54.7 °F 54.1 °F 30 in West 10 mph 16 mph 98 % 0.02 in 42 W/m2
15:30 54.7 °F 54.1 °F 30 in WNW 8 mph 19 mph 98 % 0.02 in 40 W/m2
15:35 54.7 °F 54.1 °F 30 in West 9 mph 19 mph 98 % 0.02 in 37 W/m2
15:40 54.7 °F 54.1 °F 30 in WNW 3 mph 18 mph 98 % 0.02 in 44 W/m2
15:50 54.7 °F 54 °F 30 in NW 4 mph 17 mph 98 % 0.02 in 33 W/m2
15:55 54.7 °F 54 °F 30 in WNW 8 mph 18 mph 98 % 0.02 in 25 W/m2
16:00 54.7 °F 54 °F 30 in WNW 9 mph 18 mph 98 % 0.01 in 25 W/m2
16:05 54.5 °F 54 °F 30 in West 10 mph 16 mph 98 % 0.01 in 39 W/m2
16:10 54.3 °F 53.8 °F 30 in West 4 mph 16 mph 98 % 0.01 in 47 W/m2
16:25 53.8 °F 53.2 °F 30 in WNW 4 mph 10 mph 98 % 0.01 in 56 W/m2
16:30 53.4 °F 52.9 °F 30 in West 5 mph 9 mph 98 % 0 in 40 W/m2
16:40 52.9 °F 52.3 °F 30 in WNW 1 mph 11 mph 98 % 0 in 23 W/m2
16:45 52.5 °F 52 °F 30 in West 5 mph 12 mph 98 % 0 in 21 W/m2
16:50 52.3 °F 51.8 °F 30 in West 6 mph 12 mph 98 % 0 in 18 W/m2
16:55 52.2 °F 51.6 °F 30 in West 5 mph 10 mph 98 % 0 in 18 W/m2
17:10 51.8 °F 51.3 °F 30 in WNW 4 mph 14 mph 98 % 0 in 9 W/m2
17:15 51.6 °F 51.1 °F 30 in West 7 mph 13 mph 98 % 0 in 5 W/m2
17:20 51.6 °F 51.1 °F 30 in West 5 mph 13 mph 98 % 0 in 0 W/m2
17:25 51.6 °F 51.1 °F 30 in NW 3 mph 12 mph 98 % 0 in 0 W/m2
17:30 51.8 °F 51.3 °F 30 in WNW 4 mph 13 mph 98 % 0 in 0 W/m2
17:35 51.8 °F 51.3 °F 30 in WNW 4 mph 16 mph 98 % 0 in 0 W/m2
17:40 52 °F 51.4 °F 30 in West 9 mph 17 mph 98 % 0 in 0 W/m2
17:45 52 °F 51.4 °F 30 in WNW 9 mph 17 mph 98 % 0 in 0 W/m2
17:50 52 °F 51.4 °F 30 in WNW 7 mph 17 mph 98 % 0 in 0 W/m2
18:00 51.8 °F 50.9 °F 30 in NW 8 mph 19 mph 97 % 0 in 0 W/m2
18:05 51.4 °F 50.7 °F 30.1 in WNW 7 mph 18 mph 97 % 0 in 0 W/m2
18:10 51.4 °F 50.5 °F 30.1 in NW 5 mph 15 mph 97 % 0 in 0 W/m2
18:15 51.3 °F 50.5 °F 30.1 in WNW 4 mph 15 mph 97 % 0 in 0 W/m2
18:30 51.1 °F 50.4 °F 30.1 in WNW 3 mph 13 mph 97 % 0 in 0 W/m2
18:35 51.1 °F 50.2 °F 30 in NW 10 mph 12 mph 97 % 0 in 0 W/m2
18:40 51.1 °F 50.2 °F 30 in WNW 7 mph 11 mph 97 % 0 in 0 W/m2
18:50 50.9 °F 50 °F 30 in NW 4 mph 10 mph 97 % 0 in 0 W/m2
18:55 50.9 °F 50 °F 30 in West 6 mph 11 mph 97 % 0 in 0 W/m2
19:00 50.9 °F 50 °F 30 in WNW 4 mph 12 mph 97 % 0 in 0 W/m2
19:05 50.9 °F 50 °F 30 in WNW 6 mph 12 mph 97 % 0 in 0 W/m2
19:10 50.9 °F 50 °F 30 in NW 6 mph 14 mph 97 % 0 in 0 W/m2
19:15 50.9 °F 50 °F 30.1 in NW 5 mph 14 mph 97 % 0 in 0 W/m2
19:20 50.9 °F 50 °F 30.1 in WNW 10 mph 15 mph 97 % 0 in 0 W/m2
19:25 50.9 °F 50 °F 30.1 in WNW 10 mph 15 mph 97 % 0 in 0 W/m2
19:30 50.7 °F 50 °F 30.1 in NW 11 mph 15 mph 97 % 0 in 0 W/m2
19:45 50.5 °F 49.6 °F 30.1 in NW 4 mph 12 mph 97 % 0 in 0 W/m2
19:55 50.4 °F 49.5 °F 30.1 in NNW 3 mph 12 mph 97 % 0 in 0 W/m2
20:00 50.2 °F 49.5 °F 30.1 in NNW 9 mph 9 mph 97 % 0 in 0 W/m2
20:05 50.2 °F 49.3 °F 30.1 in NW 5 mph 9 mph 97 % 0 in 0 W/m2
20:10 50 °F 49.1 °F 30.1 in NNW 4 mph 11 mph 97 % 0 in 0 W/m2
20:15 49.8 °F 49.1 °F 30.1 in WNW 4 mph 11 mph 97 % 0 in 0 W/m2
20:25 49.5 °F 48.6 °F 30.1 in West 3 mph 11 mph 97 % 0 in 0 W/m2
20:30 49.3 °F 48.6 °F 30.1 in NW 5 mph 8 mph 97 % 0 in 0 W/m2
20:40 49.3 °F 48.4 °F 30.1 in WNW 5 mph 9 mph 97 % 0 in 0 W/m2
20:45 48.9 °F 48.2 °F 30.1 in NW 7 mph 10 mph 97 % 0 in 0 W/m2
20:50 48.7 °F 47.7 °F 30.1 in NW 9 mph 13 mph 96 % 0 in 0 W/m2
20:55 48.4 °F 47.3 °F 30.1 in NNW 11 mph 13 mph 96 % 0 in 0 W/m2
21:00 48 °F 46.9 °F 30.1 in NW 4 mph 15 mph 96 % 0 in 0 W/m2
21:10 47.8 °F 46.4 °F 30.1 in NW 7 mph 14 mph 95 % 0 in 0 W/m2
21:15 47.5 °F 46.2 °F 30.1 in NW 4 mph 13 mph 95 % 0 in 0 W/m2
21:25 47.1 °F 45.9 °F 30.1 in NNW 6 mph 15 mph 95 % 0 in 0 W/m2
21:30 46.9 °F 45.7 °F 30.1 in WNW 4 mph 12 mph 95 % 0 in 0 W/m2
21:35 46.9 °F 45.5 °F 30.1 in NNW 6 mph 10 mph 95 % 0 in 0 W/m2
21:40 46.8 °F 45.1 °F 30.1 in NW 6 mph 12 mph 94 % 0 in 0 W/m2
21:45 46.4 °F 44.8 °F 30.1 in NW 1 mph 12 mph 94 % 0 in 0 W/m2
22:05 45.3 °F 43.5 °F 30.1 in NNE 5 mph 12 mph 93 % 0 in 0 W/m2
22:15 44.8 °F 43.2 °F 30.1 in WNW 3 mph 11 mph 94 % 0 in 0 W/m2
22:20 44.8 °F 43.2 °F 30.1 in NNW 9 mph 11 mph 94 % 0 in 0 W/m2
22:25 44.8 °F 43.2 °F 30.1 in NW 6 mph 11 mph 94 % 0 in 0 W/m2
22:30 45.1 °F 43.5 °F 30.1 in NW 3 mph 10 mph 94 % 0 in 0 W/m2
22:35 45.1 °F 43.5 °F 30.1 in NW 4 mph 9 mph 94 % 0 in 0 W/m2
22:38 45.1 °F 43.5 °F 30.1 in WNW 3 mph 7 mph 94 % 0 in 0 W/m2
22:39 45.1 °F 43.5 °F 30.1 in WNW 2 mph 7 mph 94 % 0 in 0 W/m2
22:49 45.1 °F 43.5 °F 30.1 in NW 6 mph 7 mph 94 % 0 in 0 W/m2
22:55 44.8 °F 42.8 °F 30.1 in NW 4 mph 7 mph 93 % 0 in 0 W/m2
23:05 44.8 °F 43.2 °F 30.1 in NW 1 mph 7 mph 94 % 0 in 0 W/m2
23:10 44.8 °F 43.2 °F 30.1 in WNW 2 mph 7 mph 94 % 0 in 0 W/m2
23:20 44.8 °F 43.2 °F 30.1 in Calm   5 mph 94 % 0 in 0 W/m2
23:25 45 °F 43.3 °F 30.1 in NW 4 mph 6 mph 94 % 0 in 0 W/m2
23:35 45.1 °F 43.5 °F 30.1 in NW 3 mph 7 mph 94 % 0 in 0 W/m2
23:40 45.1 °F 43.3 °F 30.1 in NW 1 mph 6 mph 93 % 0 in 0 W/m2
23:45 45 °F 43.2 °F 30.1 in WNW 6 mph 7 mph 93 % 0 in 0 W/m2
23:50 44.8 °F 43 °F 30.1 in NNW 4 mph 7 mph 93 % 0 in 0 W/m2
Avec l'autorisation de Weather Underground - 1.5 mb